Time;durP1;ratioP1;P1;durP2;ratioP2;P2;SDS_P1;SDS_P2;PMS_P1;PMS_P2;Temp;Humidity;BMP_temperature;BMP_pressure;BME280_temperature;BME280_humidity;BME280_pressure;Samples;Min_cycle;Max_cycle;Signal;HPM_P1;HPM_P2
2023/08/31 00:00:54;;;;;;;;;;;;;;;29.13;51.31;100753.23;106557;1262;25526;-51
2023/08/31 00:03:21;;;;;;;;;;;;;;;29.10;51.58;100758.89;106719;1270;25315;-51
2023/08/31 00:05:51;;;;;;;;;;;;;;;29.07;51.31;100767.73;106720;1266;25344;-50
2023/08/31 00:08:18;;;;;;;;;;;;;;;29.06;51.09;100779.88;106888;1265;24385;-56
2023/08/31 00:10:45;;;;;;;;;;;;;;;29.05;51.39;100779.59;106780;1256;25306;-50
2023/08/31 00:13:12;;;;;;;;;;;;;;;29.05;51.57;100775.30;106542;1264;25329;-50
2023/08/31 00:15:41;;;;;;;;;;;;;;;29.05;51.44;100777.79;106853;1259;25422;-54
2023/08/31 00:18:08;;;;;;;;;;;;;;;29.06;51.80;100785.73;106763;1259;25316;-53
2023/08/31 00:20:35;;;;;;;;;;;;;;;29.08;51.67;100796.27;106844;1257;25389;-51
2023/08/31 00:23:02;;;;;;;;;;;;;;;29.09;51.79;100806.01;106655;1259;25320;-57
2023/08/31 00:25:29;;;;;;;;;;;;;;;29.10;51.79;100805.15;106827;1267;25405;-50
2023/08/31 00:27:56;;;;;;;;;;;;;;;29.12;52.11;100804.42;106824;1266;24190;-50
2023/08/31 00:30:29;;;;;;;;;;;;;;;29.13;52.20;100798.19;106744;1259;23861;-54
2023/08/31 00:32:59;;;;;;;;;;;;;;;29.15;52.21;100803.42;106757;1261;22518;-51
2023/08/31 00:35:27;;;;;;;;;;;;;;;29.16;52.35;100806.31;106529;1264;320374;-50
2023/08/31 00:37:58;;;;;;;;;;;;;;;29.17;52.42;100814.80;106667;1264;23367;-51
2023/08/31 00:40:25;;;;;;;;;;;;;;;29.18;52.25;100816.66;106738;1268;25353;-56
2023/08/31 00:42:52;;;;;;;;;;;;;;;29.19;51.92;100814.05;106739;1270;25427;-50
2023/08/31 00:45:19;;;;;;;;;;;;;;;29.20;51.55;100808.65;106778;1263;25377;-51
2023/08/31 00:47:49;;;;;;;;;;;;;;;29.22;51.52;100812.38;106777;1265;25465;-51
2023/08/31 00:50:16;;;;;;;;;;;;;;;29.22;51.62;100822.02;106831;1259;25456;-50
2023/08/31 00:52:47;;;;;;;;;;;;;;;29.23;51.78;100827.31;106840;1266;25315;-50
2023/08/31 00:55:17;;;;;;;;;;;;;;;29.23;52.01;100828.70;106755;1270;24230;-51
2023/08/31 00:57:44;;;;;;;;;;;;;;;29.22;52.46;100828.06;106716;1274;24558;-53
2023/08/31 01:00:13;;;;;;;;;;;;;;;29.22;52.73;100832.22;106948;1267;23254;-50
2023/08/31 01:03:03;;;;;;;;;;;;;;;29.19;53.16;100833.89;106806;1262;24246;-50
2023/08/31 01:05:35;;;;;;;;;;;;;;;29.17;53.65;100838.55;106807;1256;22534;-50
2023/08/31 01:08:05;;;;;;;;;;;;;;;29.15;53.74;100839.18;106789;1256;23869;-50
2023/08/31 01:10:36;;;;;;;;;;;;;;;29.12;54.03;100838.16;106738;1260;24449;-51
2023/08/31 01:13:11;;;;;;;;;;;;;;;29.09;54.17;100837.75;106847;1256;25344;-50
2023/08/31 01:15:40;;;;;;;;;;;;;;;29.05;54.21;100842.06;106770;1256;25316;-49
2023/08/31 01:18:08;;;;;;;;;;;;;;;29.01;54.16;100840.48;106569;1261;24383;-50
2023/08/31 01:21:00;;;;;;;;;;;;;;;28.97;54.00;100844.76;106435;1270;22516;-56
2023/08/31 01:23:29;;;;;;;;;;;;;;;28.93;54.06;100842.82;106444;1264;25400;-50
2023/08/31 01:25:56;;;;;;;;;;;;;;;28.89;54.19;100841.96;106392;1273;24222;-50
2023/08/31 01:28:22;;;;;;;;;;;;;;;28.85;54.10;100834.91;106368;1268;25411;-51
2023/08/31 01:30:49;;;;;;;;;;;;;;;28.80;53.99;100839.44;106348;1273;25354;-50
2023/08/31 01:33:18;;;;;;;;;;;;;;;28.76;54.05;100849.50;106329;1262;22532;-50
2023/08/31 01:35:47;;;;;;;;;;;;;;;28.71;54.02;100851.08;106220;1275;24182;-50
2023/08/31 01:38:16;;;;;;;;;;;;;;;28.66;53.96;100854.73;106355;1262;25331;-50
2023/08/31 01:40:44;;;;;;;;;;;;;;;28.62;54.06;100860.31;106355;1263;22544;-54
2023/08/31 01:43:13;;;;;;;;;;;;;;;28.58;53.95;100851.48;106361;1262;22520;-51
2023/08/31 01:45:41;;;;;;;;;;;;;;;28.53;54.06;100847.80;106256;1265;25466;-51
2023/08/31 01:48:11;;;;;;;;;;;;;;;28.48;54.14;100842.21;106291;1274;22517;-50
2023/08/31 01:50:38;;;;;;;;;;;;;;;28.43;54.10;100839.98;106350;1277;25335;-51
2023/08/31 01:53:06;;;;;;;;;;;;;;;28.39;54.10;100837.77;106441;1269;22517;-51
2023/08/31 01:55:33;;;;;;;;;;;;;;;28.34;53.86;100835.88;106285;1271;22521;-50
2023/08/31 01:58:00;;;;;;;;;;;;;;;28.30;53.83;100831.29;106311;1276;25306;-50
2023/08/31 02:00:29;;;;;;;;;;;;;;;28.27;53.40;100819.80;106482;1269;22633;-51
2023/08/31 02:02:56;;;;;;;;;;;;;;;28.23;53.14;100810.23;106462;1269;25468;-52
2023/08/31 02:05:23;;;;;;;;;;;;;;;28.17;53.10;100805.36;106764;1259;25494;-51
2023/08/31 02:07:51;;;;;;;;;;;;;;;28.12;52.99;100800.70;106700;1264;22507;-51
2023/08/31 02:10:18;;;;;;;;;;;;;;;28.08;52.81;100799.30;106625;1269;23877;-53
2023/08/31 02:12:45;;;;;;;;;;;;;;;28.05;52.87;100799.58;106843;1259;24191;-51
2023/08/31 02:15:13;;;;;;;;;;;;;;;28.01;52.84;100800.56;106580;1270;25381;-51
2023/08/31 02:17:40;;;;;;;;;;;;;;;27.97;52.88;100797.64;106726;1266;25558;-52
2023/08/31 02:20:08;;;;;;;;;;;;;;;27.95;52.86;100790.41;106854;1262;23848;-52
2023/08/31 02:22:36;;;;;;;;;;;;;;;27.92;53.07;100792.12;106831;1269;24374;-52
2023/08/31 02:25:03;;;;;;;;;;;;;;;27.89;53.11;100790.04;106792;1259;25341;-51
2023/08/31 02:27:31;;;;;;;;;;;;;;;27.87;52.91;100784.91;106843;1272;24187;-53
2023/08/31 02:29:58;;;;;;;;;;;;;;;27.84;53.00;100775.15;106784;1267;25366;-51
2023/08/31 02:32:26;;;;;;;;;;;;;;;27.82;53.05;100773.65;106762;1259;23900;-52
2023/08/31 02:34:54;;;;;;;;;;;;;;;27.80;53.15;100770.92;106809;1267;25343;-52
2023/08/31 02:37:21;;;;;;;;;;;;;;;27.77;53.12;100771.91;106826;1263;25344;-53
2023/08/31 02:39:48;;;;;;;;;;;;;;;27.69;53.19;100773.02;106061;1266;1003008;-51
2023/08/31 02:42:14;;;;;;;;;;;;;;;27.58;53.70;100772.61;106870;1256;25393;-51
2023/08/31 02:44:41;;;;;;;;;;;;;;;27.49;54.10;100758.50;106700;1259;24206;-51
2023/08/31 02:47:08;;;;;;;;;;;;;;;27.41;54.52;100742.29;106754;1267;24208;-51
2023/08/31 02:49:35;;;;;;;;;;;;;;;27.34;55.07;100745.38;106696;1259;25293;-52
2023/08/31 02:52:03;;;;;;;;;;;;;;;27.30;55.39;100748.29;106749;1259;25315;-52
2023/08/31 02:54:30;;;;;;;;;;;;;;;27.27;55.58;100742.16;106664;1275;25378;-51
2023/08/31 02:56:57;;;;;;;;;;;;;;;27.25;55.71;100729.72;106788;1269;25434;-52
2023/08/31 02:59:24;;;;;;;;;;;;;;;27.22;56.04;100729.07;106706;1261;25369;-50
2023/08/31 03:01:51;;;;;;;;;;;;;;;27.18;56.39;100714.84;106763;1267;24192;-51
2023/08/31 03:04:18;;;;;;;;;;;;;;;27.16;57.03;100712.86;106507;1265;25329;-52
2023/08/31 03:06:45;;;;;;;;;;;;;;;27.15;57.50;100741.29;106769;1259;25316;-52
2023/08/31 03:09:13;;;;;;;;;;;;;;;27.18;57.61;100768.95;106942;1269;23303;-52
2023/08/31 03:11:40;;;;;;;;;;;;;;;27.24;57.51;100754.69;106732;1256;23848;-52
2023/08/31 03:14:09;;;;;;;;;;;;;;;27.26;57.65;100748.61;106868;1269;24227;-52
2023/08/31 03:16:36;;;;;;;;;;;;;;;27.27;57.85;100774.95;106816;1267;25344;-52
2023/08/31 03:19:04;;;;;;;;;;;;;;;27.30;58.02;100800.95;106783;1256;24188;-51
2023/08/31 03:21:31;;;;;;;;;;;;;;;27.36;58.03;100803.67;106846;1259;25313;-51
2023/08/31 03:23:59;;;;;;;;;;;;;;;27.44;57.94;100792.00;106771;1256;22626;-52
2023/08/31 03:26:26;;;;;;;;;;;;;;;27.49;58.01;100794.20;106746;1259;25344;-56
2023/08/31 03:28:53;;;;;;;;;;;;;;;27.53;57.88;100798.12;106781;1259;25486;-52
2023/08/31 03:31:21;;;;;;;;;;;;;;;27.57;57.97;100797.52;106734;1269;25327;-51
2023/08/31 03:33:49;;;;;;;;;;;;;;;27.62;57.86;100799.58;106811;1259;25344;-52
2023/08/31 03:36:16;;;;;;;;;;;;;;;27.67;57.73;100809.61;106905;1269;25343;-53
2023/08/31 03:38:43;;;;;;;;;;;;;;;27.72;57.71;100806.84;106835;1256;26481;-51
2023/08/31 03:41:11;;;;;;;;;;;;;;;27.76;57.60;100806.61;106755;1261;25334;-51
2023/08/31 03:43:39;;;;;;;;;;;;;;;27.79;57.54;100813.08;106905;1268;22633;-51
2023/08/31 03:46:06;;;;;;;;;;;;;;;27.81;57.45;100823.21;106367;1262;25390;-50
2023/08/31 03:48:33;;;;;;;;;;;;;;;27.85;57.48;100828.02;106735;1262;25329;-52
2023/08/31 03:51:00;;;;;;;;;;;;;;;27.89;57.33;100830.15;106310;1265;25396;-55
2023/08/31 03:53:26;;;;;;;;;;;;;;;27.89;57.31;100829.82;106662;1262;22802;-51
2023/08/31 03:55:56;;;;;;;;;;;;;;;27.87;57.23;100837.65;106557;1269;25218;-51
2023/08/31 03:58:23;;;;;;;;;;;;;;;27.86;57.17;100846.13;106878;1265;25341;-51
2023/08/31 04:00:52;;;;;;;;;;;;;;;27.87;56.83;100853.46;106737;1263;25559;-52
2023/08/31 04:03:19;;;;;;;;;;;;;;;27.90;56.39;100856.42;106371;1265;25327;-50
2023/08/31 04:05:47;;;;;;;;;;;;;;;27.94;55.99;100862.16;106719;1266;25309;-50
2023/08/31 04:08:14;;;;;;;;;;;;;;;27.96;55.63;100860.88;106800;1262;25299;-52
2023/08/31 04:10:41;;;;;;;;;;;;;;;27.98;55.25;100858.40;106615;1266;25469;-51
2023/08/31 04:13:08;;;;;;;;;;;;;;;27.96;55.25;100853.59;106530;1271;25350;-50
2023/08/31 04:15:35;;;;;;;;;;;;;;;27.94;55.22;100848.40;106754;1256;25523;-50
2023/08/31 04:18:03;;;;;;;;;;;;;;;27.93;55.02;100843.83;106681;1269;23279;-51
2023/08/31 04:20:30;;;;;;;;;;;;;;;27.96;54.88;100836.26;106713;1270;22505;-51
2023/08/31 04:22:57;;;;;;;;;;;;;;;27.98;54.82;100838.43;106456;1261;24212;-51
2023/08/31 04:25:23;;;;;;;;;;;;;;;27.97;54.63;100841.95;106763;1265;22507;-51
2023/08/31 04:27:50;;;;;;;;;;;;;;;27.96;54.75;100839.64;106740;1265;22535;-50
2023/08/31 04:30:17;;;;;;;;;;;;;;;27.99;54.86;100843.19;106822;1269;23881;-51
2023/08/31 04:32:46;;;;;;;;;;;;;;;28.02;54.87;100843.44;106549;1262;25393;-50
2023/08/31 04:35:13;;;;;;;;;;;;;;;28.03;54.97;100849.88;106735;1261;24175;-52
2023/08/31 04:37:40;;;;;;;;;;;;;;;28.03;55.02;100850.27;106717;1261;25533;-50
2023/08/31 04:40:08;;;;;;;;;;;;;;;28.01;55.40;100854.52;106805;1275;25330;-50
2023/08/31 04:42:35;;;;;;;;;;;;;;;28.01;55.69;100856.66;106819;1262;23862;-51
2023/08/31 04:45:02;;;;;;;;;;;;;;;28.01;56.07;100857.55;106848;1266;25299;-54
2023/08/31 04:47:29;;;;;;;;;;;;;;;28.01;56.08;100856.54;106777;1259;24180;-50
2023/08/31 04:49:58;;;;;;;;;;;;;;;27.99;55.96;100857.75;106777;1266;25316;-50
2023/08/31 04:52:25;;;;;;;;;;;;;;;28.00;55.88;100855.02;106860;1259;25328;-50
2023/08/31 04:54:53;;;;;;;;;;;;;;;28.02;55.86;100853.94;106747;1260;25353;-51
2023/08/31 04:57:20;;;;;;;;;;;;;;;28.03;55.81;100858.06;106908;1262;24173;-51
2023/08/31 04:59:46;;;;;;;;;;;;;;;28.05;55.44;100859.12;106761;1259;25322;-57
2023/08/31 05:02:13;;;;;;;;;;;;;;;28.08;55.50;100858.83;106814;1259;25373;-50
2023/08/31 05:04:40;;;;;;;;;;;;;;;28.11;55.62;100860.15;106774;1259;25436;-50
2023/08/31 05:07:07;;;;;;;;;;;;;;;28.14;55.83;100859.60;106772;1260;25289;-51
2023/08/31 05:09:35;;;;;;;;;;;;;;;28.16;55.74;100854.69;106714;1262;23841;-51
2023/08/31 05:12:02;;;;;;;;;;;;;;;28.22;55.65;100851.86;106639;1262;25316;-51
2023/08/31 05:14:30;;;;;;;;;;;;;;;28.27;55.61;100851.57;106769;1260;23221;-54
2023/08/31 05:16:56;;;;;;;;;;;;;;;28.32;55.71;100844.48;106719;1261;22499;-50
2023/08/31 05:19:24;;;;;;;;;;;;;;;28.36;55.44;100847.52;106737;1268;25392;-51
2023/08/31 05:21:51;;;;;;;;;;;;;;;28.39;55.40;100847.51;106751;1259;25201;-51
2023/08/31 05:24:18;;;;;;;;;;;;;;;28.44;55.41;100848.34;106739;1259;24099;-51
2023/08/31 05:26:45;;;;;;;;;;;;;;;28.48;55.55;100857.90;106749;1268;25325;-51
2023/08/31 05:29:13;;;;;;;;;;;;;;;28.52;55.70;100861.27;106846;1262;25496;-50
2023/08/31 05:31:40;;;;;;;;;;;;;;;28.57;55.61;100868.32;106952;1259;25333;-50
2023/08/31 05:34:09;;;;;;;;;;;;;;;28.61;55.44;100871.83;106788;1256;25344;-50
2023/08/31 05:36:36;;;;;;;;;;;;;;;28.65;55.17;100873.85;106743;1268;25293;-51
2023/08/31 05:39:04;;;;;;;;;;;;;;;28.67;55.20;100879.30;106725;1262;25402;-52
2023/08/31 05:41:31;;;;;;;;;;;;;;;28.71;55.43;100880.34;106457;1259;25303;-51
2023/08/31 05:43:58;;;;;;;;;;;;;;;28.75;55.56;100885.28;106618;1262;24041;-52
2023/08/31 05:46:25;;;;;;;;;;;;;;;28.81;55.33;100888.47;106658;1276;25319;-54
2023/08/31 05:48:52;;;;;;;;;;;;;;;28.85;55.35;100891.13;106886;1259;25533;-52
2023/08/31 05:51:19;;;;;;;;;;;;;;;28.90;55.28;100898.50;106586;1262;25319;-51
2023/08/31 05:53:46;;;;;;;;;;;;;;;28.93;55.06;100898.17;106766;1262;23286;-50
2023/08/31 05:56:13;;;;;;;;;;;;;;;28.99;55.13;100899.45;106781;1269;25349;-49
2023/08/31 05:58:40;;;;;;;;;;;;;;;29.06;55.01;100902.21;106777;1269;24183;-51
2023/08/31 06:01:07;;;;;;;;;;;;;;;29.14;54.88;100907.13;106786;1262;23842;-49
2023/08/31 06:03:34;;;;;;;;;;;;;;;29.25;55.01;100904.10;106777;1262;25408;-51
2023/08/31 06:06:01;;;;;;;;;;;;;;;29.35;54.61;100907.70;106602;1278;25316;-54
2023/08/31 06:08:30;;;;;;;;;;;;;;;29.45;54.63;100904.58;106751;1268;22523;-53
2023/08/31 06:10:57;;;;;;;;;;;;;;;29.57;54.45;100908.06;106799;1259;22510;-51
2023/08/31 06:13:23;;;;;;;;;;;;;;;29.69;53.88;100907.36;106788;1257;25334;-50
2023/08/31 06:15:50;;;;;;;;;;;;;;;29.84;53.36;100905.69;106793;1259;25296;-49
2023/08/31 06:18:17;;;;;;;;;;;;;;;29.97;52.21;100906.33;106757;1259;22523;-50
2023/08/31 06:20:44;;;;;;;;;;;;;;;30.10;51.10;100905.86;106786;1259;22515;-49
2023/08/31 06:23:11;;;;;;;;;;;;;;;30.27;50.41;100905.75;106819;1259;25303;-50
2023/08/31 06:25:39;;;;;;;;;;;;;;;30.47;50.02;100909.46;106797;1262;25293;-51
2023/08/31 06:28:11;;;;;;;;;;;;;;;30.63;50.17;100906.55;106753;1262;25780;-49
2023/08/31 06:30:38;;;;;;;;;;;;;;;30.78;50.15;100906.08;106824;1272;25321;-50
2023/08/31 06:33:05;;;;;;;;;;;;;;;30.87;49.34;100909.22;106873;1268;25315;-55
2023/08/31 06:35:33;;;;;;;;;;;;;;;30.93;49.37;100908.77;106772;1265;25340;-51
2023/08/31 06:37:59;;;;;;;;;;;;;;;30.96;49.02;100904.73;106774;1259;25422;-50
2023/08/31 06:40:26;;;;;;;;;;;;;;;30.96;48.91;100904.66;106856;1266;25372;-53
2023/08/31 06:42:53;;;;;;;;;;;;;;;30.95;48.78;100908.96;106718;1256;25465;-50
2023/08/31 06:45:20;;;;;;;;;;;;;;;30.92;48.55;100913.60;106827;1259;25333;-50
2023/08/31 06:47:47;;;;;;;;;;;;;;;30.86;48.46;100917.38;106685;1259;25393;-49
2023/08/31 06:50:14;;;;;;;;;;;;;;;30.83;48.77;100920.73;106821;1260;25344;-50
2023/08/31 06:52:41;;;;;;;;;;;;;;;30.81;48.33;100923.86;106788;1264;24458;-49
2023/08/31 06:55:10;;;;;;;;;;;;;;;30.78;48.61;100928.05;106740;1268;25399;-49
2023/08/31 06:57:38;;;;;;;;;;;;;;;30.78;48.52;100931.86;106780;1266;25466;-51
2023/08/31 07:00:06;;;;;;;;;;;;;;;30.77;48.77;100939.80;106771;1262;25318;-50
2023/08/31 07:02:34;;;;;;;;;;;;;;;30.77;49.06;100943.45;106744;1268;25211;-51
2023/08/31 07:05:01;;;;;;;;;;;;;;;30.77;49.00;100947.31;106742;1269;22507;-50
2023/08/31 07:07:28;;;;;;;;;;;;;;;30.79;48.70;100951.77;106801;1264;25501;-50
2023/08/31 07:09:56;;;;;;;;;;;;;;;30.83;48.62;100958.02;106776;1269;25324;-50
2023/08/31 07:12:23;;;;;;;;;;;;;;;30.90;48.49;100961.63;106726;1263;25465;-50
2023/08/31 07:14:49;;;;;;;;;;;;;;;31.03;48.14;100957.14;106689;1257;25330;-53
2023/08/31 07:17:19;;;;;;;;;;;;;;;31.25;47.04;100959.33;106736;1270;24333;-50
2023/08/31 07:19:47;;;;;;;;;;;;;;;31.53;45.85;100955.08;106759;1270;25319;-49
2023/08/31 07:22:14;;;;;;;;;;;;;;;31.86;45.86;100957.77;106778;1273;25316;-51
2023/08/31 07:24:41;;;;;;;;;;;;;;;32.22;45.38;100953.98;106826;1259;24178;-51
2023/08/31 07:27:08;;;;;;;;;;;;;;;32.55;44.98;100960.62;106724;1259;25316;-52
2023/08/31 07:29:35;;;;;;;;;;;;;;;32.83;44.85;100965.16;106550;1262;25393;-51
2023/08/31 07:32:03;;;;;;;;;;;;;;;33.10;44.25;100965.84;106976;1268;25296;-51
2023/08/31 07:34:31;;;;;;;;;;;;;;;33.29;43.40;100966.95;106632;1266;22635;-51
2023/08/31 07:36:59;;;;;;;;;;;;;;;33.40;43.11;100969.20;106032;1269;22636;-50
2023/08/31 07:39:26;;;;;;;;;;;;;;;33.46;43.70;100967.32;106476;1263;25469;-49
2023/08/31 07:41:54;;;;;;;;;;;;;;;33.43;43.91;100970.09;106372;1276;25393;-49
2023/08/31 07:44:21;;;;;;;;;;;;;;;33.37;43.69;100973.66;106575;1263;23867;-51
2023/08/31 07:46:48;;;;;;;;;;;;;;;33.31;44.01;100977.33;106374;1264;25308;-57
2023/08/31 07:49:15;;;;;;;;;;;;;;;33.21;44.46;100979.52;106371;1274;25393;-50
2023/08/31 07:51:42;;;;;;;;;;;;;;;33.13;44.63;100979.54;106401;1268;24187;-51
2023/08/31 07:54:08;;;;;;;;;;;;;;;33.08;45.04;100983.54;106584;1262;25317;-50
2023/08/31 07:56:35;;;;;;;;;;;;;;;33.04;44.78;100982.73;106580;1273;25469;-49
2023/08/31 07:59:03;;;;;;;;;;;;;;;32.99;44.47;100985.27;106644;1271;25343;-50
2023/08/31 08:01:30;;;;;;;;;;;;;;;32.95;44.72;100984.89;106493;1271;25786;-50
2023/08/31 08:03:57;;;;;;;;;;;;;;;32.91;45.18;100984.63;106475;1275;25293;-50
2023/08/31 08:06:24;;;;;;;;;;;;;;;32.88;45.65;100984.13;106540;1271;25399;-50
2023/08/31 08:08:51;;;;;;;;;;;;;;;32.84;45.15;100983.87;105979;1279;25319;-50
2023/08/31 08:11:18;;;;;;;;;;;;;;;32.79;44.51;100981.00;106573;1262;25312;-52
2023/08/31 08:13:45;;;;;;;;;;;;;;;32.76;44.38;100975.63;106945;1268;25372;-51
2023/08/31 08:16:12;;;;;;;;;;;;;;;32.74;44.54;100975.15;106511;1272;25319;-50
2023/08/31 08:18:39;;;;;;;;;;;;;;;32.73;44.55;100979.60;106800;1269;25320;-50
2023/08/31 08:21:06;;;;;;;;;;;;;;;32.73;44.73;100979.97;106808;1259;24327;-52
2023/08/31 08:23:33;;;;;;;;;;;;;;;32.73;44.96;100980.46;106804;1262;25338;-52
2023/08/31 08:26:00;;;;;;;;;;;;;;;32.74;44.63;100979.13;106848;1254;23284;-50
2023/08/31 08:28:28;;;;;;;;;;;;;;;32.75;44.61;100976.49;106572;1272;25302;-51
2023/08/31 08:30:55;;;;;;;;;;;;;;;32.77;44.66;100972.14;106763;1259;24093;-51
2023/08/31 08:33:22;;;;;;;;;;;;;;;32.77;44.69;100971.61;106635;1269;25394;-52
2023/08/31 08:35:49;;;;;;;;;;;;;;;32.77;44.92;100968.20;106604;1259;25327;-51
2023/08/31 08:38:16;;;;;;;;;;;;;;;32.78;44.92;100967.02;106868;1259;25529;-50
2023/08/31 08:40:43;;;;;;;;;;;;;;;32.81;44.78;100968.64;106833;1266;25318;-50
2023/08/31 08:43:10;;;;;;;;;;;;;;;32.84;44.63;100970.75;106692;1270;23436;-51
2023/08/31 08:45:38;;;;;;;;;;;;;;;32.86;44.93;100970.71;106661;1262;25305;-50
2023/08/31 08:48:06;;;;;;;;;;;;;;;32.87;45.06;100969.92;106837;1268;25399;-51
2023/08/31 08:50:34;;;;;;;;;;;;;;;32.88;44.89;100971.52;106810;1259;24394;-50
2023/08/31 08:53:05;;;;;;;;;;;;;;;32.90;44.88;100971.52;106635;1270;25458;-51
2023/08/31 08:55:32;;;;;;;;;;;;;;;32.93;44.91;100977.18;106735;1269;25295;-51
2023/08/31 08:58:03;;;;;;;;;;;;;;;32.95;44.70;100978.92;106862;1259;25296;-50
2023/08/31 09:00:30;;;;;;;;;;;;;;;32.95;44.53;100981.83;106784;1268;25376;-49
2023/08/31 09:02:57;;;;;;;;;;;;;;;32.94;44.51;100979.02;106785;1260;25318;-50
2023/08/31 09:05:24;;;;;;;;;;;;;;;32.94;44.76;100981.05;106721;1260;25466;-53
2023/08/31 09:08:06;;;;;;;;;;;;;;;32.91;45.14;100983.08;106761;1259;22510;-52
2023/08/31 09:10:35;;;;;;;;;;;;;;;32.77;45.88;100980.52;106795;1259;22513;-52
2023/08/31 09:13:04;;;;;;;;;;;;;;;32.77;45.45;100987.16;106675;1259;22509;-50
2023/08/31 09:15:47;;;;;;;;;;;;;;;32.79;45.40;100981.98;106791;1266;24170;-52
2023/08/31 09:18:15;;;;;;;;;;;;;;;32.79;45.40;100983.92;106834;1260;23324;-53
2023/08/31 09:20:44;;;;;;;;;;;;;;;32.77;45.47;100982.48;106819;1259;24179;-54
2023/08/31 09:23:11;;;;;;;;;;;;;;;32.76;45.72;100980.98;106836;1259;24389;-52
2023/08/31 09:25:43;;;;;;;;;;;;;;;32.78;45.87;100979.25;106819;1259;24250;-51
2023/08/31 09:28:11;;;;;;;;;;;;;;;32.93;45.51;100981.31;106870;1268;25257;-50
2023/08/31 09:30:40;;;;;;;;;;;;;;;32.97;45.13;100981.89;106825;1259;23880;-50
2023/08/31 09:33:08;;;;;;;;;;;;;;;32.97;45.40;100978.89;106764;1269;24339;-51
2023/08/31 09:35:39;;;;;;;;;;;;;;;32.98;45.56;100981.10;106790;1259;24189;-52
2023/08/31 09:38:09;;;;;;;;;;;;;;;32.99;45.16;100979.34;106837;1259;25390;-55
2023/08/31 09:40:37;;;;;;;;;;;;;;;33.00;44.90;100978.16;106851;1270;25431;-51
2023/08/31 09:43:04;;;;;;;;;;;;;;;33.00;45.06;100979.38;106838;1270;25462;-51
2023/08/31 09:45:32;;;;;;;;;;;;;;;33.02;45.01;100984.40;106701;1260;22517;-51
2023/08/31 09:48:13;;;;;;;;;;;;;;;33.06;44.92;100983.98;106719;1266;25445;-50
2023/08/31 09:50:40;;;;;;;;;;;;;;;33.10;44.97;100983.84;106737;1266;24214;-50
2023/08/31 09:53:07;;;;;;;;;;;;;;;33.14;45.20;100981.23;106846;1269;24332;-50
2023/08/31 09:55:34;;;;;;;;;;;;;;;33.18;45.23;100977.36;106838;1262;25501;-54
2023/08/31 09:58:02;;;;;;;;;;;;;;;33.20;45.34;100978.03;106742;1263;24214;-50
2023/08/31 10:00:41;;;;;;;;;;;;;;;33.21;45.35;100982.61;106816;1270;25306;-51
2023/08/31 10:03:09;;;;;;;;;;;;;;;33.19;45.51;100984.44;106869;1270;25389;-55
2023/08/31 10:05:37;;;;;;;;;;;;;;;33.17;45.78;100988.42;106835;1272;25344;-49
2023/08/31 10:08:04;;;;;;;;;;;;;;;33.16;46.00;100991.59;106758;1264;25296;-51
2023/08/31 10:10:31;;;;;;;;;;;;;;;33.15;46.28;100993.69;106782;1259;24354;-51
2023/08/31 10:12:59;;;;;;;;;;;;;;;33.14;46.55;100996.32;106716;1269;25310;-51
2023/08/31 10:15:26;;;;;;;;;;;;;;;33.14;46.54;100995.08;106881;1270;25466;-51
2023/08/31 10:17:53;;;;;;;;;;;;;;;33.14;46.45;100996.73;106808;1267;25296;-49
2023/08/31 10:20:20;;;;;;;;;;;;;;;33.13;46.70;100996.50;106834;1257;25731;-51
2023/08/31 10:22:47;;;;;;;;;;;;;;;33.12;46.95;100994.57;106781;1270;23855;-50
2023/08/31 10:25:14;;;;;;;;;;;;;;;33.13;47.18;100994.84;106775;1268;25333;-50
2023/08/31 10:27:42;;;;;;;;;;;;;;;33.15;47.45;100999.29;106737;1273;25464;-50
2023/08/31 10:30:16;;;;;;;;;;;;;;;33.17;47.35;100998.16;106803;1260;24175;-49
2023/08/31 10:32:43;;;;;;;;;;;;;;;33.20;47.06;101002.88;106881;1268;23887;-49
2023/08/31 10:35:10;;;;;;;;;;;;;;;33.22;47.16;101006.79;106794;1268;23414;-49
2023/08/31 10:37:39;;;;;;;;;;;;;;;33.26;47.10;101002.28;106599;1262;24394;-53
2023/08/31 10:40:07;;;;;;;;;;;;;;;33.28;47.37;100999.20;106782;1269;25334;-52
2023/08/31 10:42:41;;;;;;;;;;;;;;;33.29;47.49;100998.41;106767;1260;25453;-51
2023/08/31 10:45:08;;;;;;;;;;;;;;;33.29;47.60;100999.63;106661;1278;25449;-50
2023/08/31 10:47:41;;;;;;;;;;;;;;;33.32;47.59;100998.36;106906;1267;25331;-49
2023/08/31 10:50:17;;;;;;;;;;;;;;;33.24;47.60;101002.00;106849;1263;25445;-50
2023/08/31 10:52:44;;;;;;;;;;;;;;;33.36;47.49;101003.37;106724;1270;22509;-49
2023/08/31 10:55:11;;;;;;;;;;;;;;;33.45;47.19;101004.86;106790;1270;24342;-50
2023/08/31 10:57:40;;;;;;;;;;;;;;;33.47;47.35;101000.42;106821;1270;25374;-50
2023/08/31 11:00:08;;;;;;;;;;;;;;;33.47;47.18;100997.86;106772;1268;25293;-51
2023/08/31 11:02:38;;;;;;;;;;;;;;;33.47;47.46;100996.98;106795;1270;22633;-50
2023/08/31 11:05:06;;;;;;;;;;;;;;;33.48;47.62;100993.11;106809;1264;24336;-51
2023/08/31 11:07:34;;;;;;;;;;;;;;;33.49;47.65;100991.74;106868;1271;25330;-50
2023/08/31 11:10:06;;;;;;;;;;;;;;;33.50;47.72;100991.08;106826;1258;25414;-50
2023/08/31 11:12:34;;;;;;;;;;;;;;;33.50;48.01;100985.38;106870;1260;25284;-51
2023/08/31 11:15:03;;;;;;;;;;;;;;;33.50;48.02;100981.60;106789;1276;22577;-51
2023/08/31 11:17:32;;;;;;;;;;;;;;;33.51;47.89;100978.83;106788;1267;22509;-50
2023/08/31 11:19:59;;;;;;;;;;;;;;;33.52;47.79;100977.44;106831;1260;22573;-51
2023/08/31 11:22:26;;;;;;;;;;;;;;;33.52;47.62;100973.92;106862;1261;24033;-51
2023/08/31 11:24:53;;;;;;;;;;;;;;;33.52;47.78;100969.67;106721;1264;25330;-50
2023/08/31 11:27:20;;;;;;;;;;;;;;;33.51;47.96;100967.83;106814;1269;23838;-51
2023/08/31 11:29:48;;;;;;;;;;;;;;;33.51;48.17;100969.75;106953;1267;24182;-50
2023/08/31 11:32:14;;;;;;;;;;;;;;;33.53;48.30;100967.59;106821;1260;22514;-49
2023/08/31 11:34:44;;;;;;;;;;;;;;;33.55;48.19;100965.18;106766;1269;25296;-52
2023/08/31 11:37:17;;;;;;;;;;;;;;;33.57;47.99;100964.27;106772;1260;25306;-52
2023/08/31 11:39:53;;;;;;;;;;;;;;;33.56;48.02;100961.45;106805;1260;25327;-51
2023/08/31 11:42:21;;;;;;;;;;;;;;;33.56;48.07;100963.25;106717;1270;25416;-51
2023/08/31 11:44:48;;;;;;;;;;;;;;;33.57;48.16;100959.54;106774;1260;24227;-50
2023/08/31 11:47:15;;;;;;;;;;;;;;;33.59;48.23;100955.34;106751;1272;25365;-49
2023/08/31 11:49:42;;;;;;;;;;;;;;;33.61;48.30;100951.98;106548;1272;25501;-50
2023/08/31 11:52:10;;;;;;;;;;;;;;;33.65;48.10;100952.84;106819;1267;25336;-52
2023/08/31 11:54:38;;;;;;;;;;;;;;;33.67;48.08;100954.29;106934;1266;22521;-51
2023/08/31 11:57:09;;;;;;;;;;;;;;;33.67;48.12;100953.91;106759;1276;25362;-50
2023/08/31 11:59:36;;;;;;;;;;;;;;;33.68;48.26;100951.89;106850;1266;25303;-55
2023/08/31 12:02:07;;;;;;;;;;;;;;;33.70;48.37;100955.45;106755;1270;25338;-51
2023/08/31 12:04:44;;;;;;;;;;;;;;;33.65;48.42;100958.85;106829;1264;22508;-52
2023/08/31 12:07:11;;;;;;;;;;;;;;;33.57;48.58;100960.65;106751;1271;24401;-52
2023/08/31 12:09:38;;;;;;;;;;;;;;;33.53;48.65;100964.34;106696;1275;22618;-54
2023/08/31 12:12:05;;;;;;;;;;;;;;;33.53;48.60;100969.79;106823;1263;25333;-51
2023/08/31 12:14:32;;;;;;;;;;;;;;;33.52;48.53;100970.90;106845;1269;25407;-51
2023/08/31 12:17:03;;;;;;;;;;;;;;;33.51;48.57;100968.83;106727;1260;25333;-50
2023/08/31 12:19:30;;;;;;;;;;;;;;;33.51;48.77;100967.75;106943;1271;22534;-51
2023/08/31 12:21:58;;;;;;;;;;;;;;;33.52;48.95;100965.88;106881;1270;24166;-51
2023/08/31 12:24:25;;;;;;;;;;;;;;;33.55;48.82;100963.32;106904;1264;25340;-50
2023/08/31 12:26:55;;;;;;;;;;;;;;;33.63;48.46;100961.16;106529;1278;25317;-51
2023/08/31 12:29:22;;;;;;;;;;;;;;;33.64;48.47;100956.19;106885;1264;25800;-55